Gesamt
Nhill Airport (Nhill, Victoria) YNHL Wetter
|
Nhill, Victoria (YNHL)
Klarer Himmel
Leichter Wind |
|
15 °C |
There is no TAF data available at YNHL or any nearby airports.
Kürzlicher METAR-Verlauf für YNHL
| Date | Time (AEST) | Flight Rules | Wind Dir. | Speed | Type | Height AGL (ft) | Visibility | Temp (°C) | Temp (°F) | Dew Point (°C) | Dew Point (°F) | Rel. Humid. | Pressure | Density Altitude | Remarks |
|---|---|---|---|---|---|---|---|---|---|---|---|---|---|---|---|
| 09-Mai | 12:00 | n/a | 190° | 8 kt | Missing | 15° | 59° | 10° | 50° | 72% | 1029 mb | -12 ft | |||
| 09-Mai | 11:00 | n/a | 170° | 9 kt | Missing | 14° | 57° | 10° | 50° | 77% | 1029 mb | -132 ft | |||
| 09-Mai | 10:00 | n/a | 190° | 8 kt | Missing | 13° | 55° | 11° | 51° | 88% | 1029 mb | -252 ft | |||
| 09-Mai | 09:00 | n/a | 190° | 8 kt | Missing | 12° | 53° | 12° | 53° | 100% | 1029 mb | -372 ft | |||
| 09-Mai | 08:00 | n/a | 200° | 6 kt | Missing | 12° | 53° | 12° | 53° | 100% | 1029 mb | -372 ft | |||
| 09-Mai | 07:00 | n/a | 220° | 6 kt | Missing | 11° | 51° | 11° | 51° | 100% | 1028 mb | -463 ft | |||
| 09-Mai | 06:00 | n/a | 200° | 6 kt | Missing | 11° | 51° | 11° | 51° | 100% | 1028 mb | -463 ft | |||
| 09-Mai | 05:00 | n/a | 210° | 8 kt | Missing | 12° | 53° | 12° | 53° | 100% | 1027 mb | -313 ft | |||
| 09-Mai | 04:00 | n/a | 230° | 7 kt | Missing | 12° | 53° | 12° | 53° | 100% | 1027 mb | -313 ft | |||
| 09-Mai | 03:00 | n/a | 250° | 7 kt | Missing | 12° | 53° | 11° | 51° | 94% | 1027 mb | -313 ft | |||
| 09-Mai | 02:00 | n/a | 250° | 7 kt | Missing | 12° | 53° | 12° | 53° | 100% | 1027 mb | -313 ft | |||
| 09-Mai | 01:00 | n/a | 240° | 6 kt | Missing | 12° | 53° | 12° | 53° | 100% | 1027 mb | -313 ft | |||
| 09-Mai | 00:00 | n/a | 240° | 8 kt | Missing | 12° | 53° | 11° | 51° | 94% | 1027 mb | -313 ft | |||
| 08-Mai | 23:00 | n/a | 230° | 7 kt | Missing | 12° | 53° | 12° | 53° | 100% | 1028 mb | -343 ft | |||
| 08-Mai | 22:00 | n/a | 220° | 10 kt | Missing | 12° | 53° | 12° | 53° | 100% | 1028 mb | -343 ft | |||
| 08-Mai | 21:00 | n/a | 250° | 7 kt | Missing | 12° | 53° | 12° | 53° | 100% | 1028 mb | -343 ft | |||
| 08-Mai | 20:00 | n/a | 240° | 7 kt | Missing | 12° | 53° | 11° | 51° | 94% | 1027 mb | -313 ft | |||
| 08-Mai | 19:00 | n/a | 250° | 9 kt | Missing | 12° | 53° | 11° | 51° | 94% | 1027 mb | -313 ft | |||
| 08-Mai | 18:00 | n/a | 240° | 11 kt | Missing | 14° | 57° | 11° | 51° | 82% | 1026 mb | -44 ft | |||
| 08-Mai | 17:00 | n/a | 250° | 12 kt | Missing | 15° | 59° | 11° | 51° | 77% | 1026 mb | 76 ft | |||
| 08-Mai | 16:00 | n/a | 230° | 10 kt | Missing | 14° | 57° | 12° | 53° | 88% | 1026 mb | -44 ft | |||
| 08-Mai | 15:00 | n/a | 230° | 13 kt | Missing | 15° | 59° | 11° | 51° | 77% | 1026 mb | 76 ft | |||
| 08-Mai | 14:00 | n/a | 220° | 13 kt | Missing | 15° | 59° | 10° | 50° | 72% | 1026 mb | 76 ft | |||
| 08-Mai | 13:00 | n/a | 230° | 18 kt | Missing | 15° | 59° | 9° | 48° | 67% | 1026 mb | 76 ft |
Anmelden
| Ihr Browser wird nicht unterstützt. aktualisieren Sie Ihren Browser |
